This is the latest recevied weather packets stored in our database for station/object KD5UMO-1. If no packets are shown the sender has not sent any weather packets the latest 10 day(s).
| Time | Temp. | Humidity | Pressure | Rain* | Wind** | Luminosity | Snow |
|---|---|---|---|---|---|---|---|
| 1777568615 | 16.67° C | 85% | 1015.8 hPa | 0 mm | - | 116 W/m² | - |
| 1777568313 | 16.67° C | 84% | 1016.2 hPa | 0 mm | - | 83 W/m² | - |
| 1777568009 | 16.67° C | 83% | 1016.6 hPa | 0 mm | - | 80 W/m² | - |
| 1777567706 | 16.67° C | 83% | 1016.5 hPa | 0 mm | - | 72 W/m² | - |
| 1777567403 | 16.67° C | 83% | 1016.5 hPa | 0 mm | - | 61 W/m² | - |
| 1777567101 | 16.67° C | 82% | 1016.6 hPa | 0 mm | - | 35 W/m² | - |
| 1777566798 | 16.67° C | 82% | 1016.6 hPa | 0 mm | - | 36 W/m² | - |
| 1777566496 | 16.67° C | 82% | 1016.5 hPa | 0 mm | - | 52 W/m² | - |
| 1777566193 | 17.22° C | 81% | 1016.5 hPa | 0 mm | - | 38 W/m² | - |
| 1777565890 | 17.22° C | 81% | 1016.2 hPa | 0 mm | - | 76 W/m² | - |
| 1777565585 | 16.67° C | 81% | 1016 hPa | 0 mm | - | 107 W/m² | - |
| 1777565282 | 17.22° C | 81% | 1016.1 hPa | 0 mm | - | 64 W/m² | - |
| 1777564978 | 17.22° C | 81% | 1016.1 hPa | 0 mm | - | 93 W/m² | - |
| 1777564673 | 17.22° C | 80% | 1016.3 hPa | 0 mm | - | 74 W/m² | - |
| 1777564369 | 17.22° C | 81% | 1016.5 hPa | 0 mm | - | 58 W/m² | - |
| 1777564064 | 17.22° C | 80% | 1016.9 hPa | 0 mm | - | 46 W/m² | - |
| 1777562784 | 17.22° C | 80% | 1015.6 hPa | 0 mm | - | 108 W/m² | - |
| 1777562482 | 17.22° C | 80% | 1015.6 hPa | 0 mm | - | 108 W/m² | - |
| 1777562179 | 17.22° C | 81% | 1015.9 hPa | 0 mm | - | 123 W/m² | - |
| 1777561876 | 17.22° C | 81% | 1015.6 hPa | 0 mm | - | 136 W/m² | - |
| 1777561573 | 17.22° C | 82% | 1015.5 hPa | 0 mm | - | 156 W/m² | - |
| 1777561269 | 17.22° C | 82% | 1015.4 hPa | 0 mm | - | 254 W/m² | - |
| 1777560969 | 17.22° C | 84% | 1015.4 hPa | 0 mm | - | 158 W/m² | - |
| 1777560665 | 16.67° C | 85% | 1015.2 hPa | 0 mm | - | 178 W/m² | - |
| 1777560363 | 16.67° C | 86% | 1015.2 hPa | 0 mm | - | 155 W/m² | - |
* Rain latest hour (hover to see other rain measurements)
** Current wind speed in m/s (hover to see current wind gust speed)